createdAt,value
2023-03-20T00:00:50.805Z,0
2023-03-20T00:01:50.833Z,0
2023-03-20T00:02:50.810Z,0
2023-03-20T00:03:50.857Z,0
2023-03-20T00:04:50.996Z,0
2023-03-20T00:05:50.804Z,0
2023-03-20T00:06:50.846Z,0
2023-03-20T00:07:50.798Z,0
2023-03-20T00:08:50.852Z,0
2023-03-20T00:09:50.846Z,0
2023-03-20T00:10:50.804Z,0
2023-03-20T00:11:50.836Z,0
2023-03-20T00:12:50.813Z,0
2023-03-20T00:13:50.816Z,0
2023-03-20T00:14:50.814Z,0
2023-03-20T00:15:50.862Z,0
2023-03-20T00:16:50.825Z,0
2023-03-20T00:17:50.807Z,0
2023-03-20T00:18:50.801Z,0
2023-03-20T00:19:50.811Z,0
2023-03-20T00:20:50.823Z,0
2023-03-20T00:21:50.847Z,0
2023-03-20T00:22:50.810Z,0
2023-03-20T00:23:50.813Z,0
2023-03-20T00:24:50.811Z,0
2023-03-20T00:25:50.809Z,0
2023-03-20T00:26:50.828Z,0
2023-03-20T00:27:50.804Z,0
2023-03-20T00:28:50.813Z,0
2023-03-20T00:29:50.817Z,0
2023-03-20T00:30:50.809Z,0
2023-03-20T00:31:50.903Z,0
2023-03-20T00:32:50.864Z,0
2023-03-20T00:33:50.805Z,0
2023-03-20T00:34:50.813Z,0
2023-03-20T00:35:50.837Z,0
2023-03-20T00:36:50.823Z,0
2023-03-20T00:37:50.822Z,0
2023-03-20T00:38:50.804Z,0
2023-03-20T00:39:50.813Z,0
2023-03-20T00:40:50.811Z,0
2023-03-20T00:41:50.838Z,0
2023-03-20T00:42:50.807Z,0
2023-03-20T00:43:50.809Z,0
2023-03-20T00:44:50.802Z,0
2023-03-20T00:45:50.810Z,0
2023-03-20T00:46:51.107Z,0
2023-03-20T00:47:50.806Z,0
2023-03-20T00:48:50.813Z,0
2023-03-20T00:49:50.869Z,0
2023-03-20T00:50:50.817Z,0
2023-03-20T00:51:50.830Z,0
2023-03-20T00:52:50.809Z,0
2023-03-20T00:53:50.805Z,0
2023-03-20T00:54:50.815Z,0
2023-03-20T00:55:50.817Z,0
2023-03-20T00:56:50.832Z,0
2023-03-20T00:57:50.796Z,0
2023-03-20T00:58:50.807Z,0
2023-03-20T00:59:50.810Z,0
2023-03-20T01:00:50.888Z,0
2023-03-20T01:01:50.858Z,0
2023-03-20T01:02:50.806Z,0
2023-03-20T01:03:50.814Z,0
2023-03-20T01:04:50.801Z,0
2023-03-20T01:05:50.799Z,0
2023-03-20T01:06:50.835Z,0
2023-03-20T01:07:50.800Z,0
2023-03-20T01:08:50.803Z,0
2023-03-20T01:09:50.805Z,0
2023-03-20T01:10:50.813Z,0
2023-03-20T01:11:51.506Z,0
2023-03-20T01:12:50.819Z,0
2023-03-20T01:13:50.804Z,0
2023-03-20T01:14:50.795Z,0
2023-03-20T01:15:50.809Z,0
2023-03-20T01:16:50.848Z,0
2023-03-20T01:17:50.801Z,0
2023-03-20T01:18:50.807Z,0
2023-03-20T01:19:50.804Z,0
2023-03-20T01:20:50.805Z,0
2023-03-20T01:21:50.846Z,0
2023-03-20T01:22:50.809Z,0
2023-03-20T01:23:50.798Z,0
2023-03-20T01:24:50.805Z,0
2023-03-20T01:25:50.806Z,0
2023-03-20T01:26:50.832Z,0
2023-03-20T01:27:50.806Z,0
2023-03-20T01:28:50.818Z,0
2023-03-20T01:29:50.802Z,0
2023-03-20T01:30:50.804Z,0
2023-03-20T01:31:50.913Z,0
2023-03-20T01:32:50.811Z,0
2023-03-20T01:33:50.805Z,0
2023-03-20T01:34:50.802Z,0
2023-03-20T01:35:50.853Z,0
2023-03-20T01:36:50.851Z,0
2023-03-20T01:37:50.798Z,0
2023-03-20T01:38:50.800Z,0
2023-03-20T01:39:50.808Z,0
2023-03-20T01:40:50.800Z,0
2023-03-20T01:41:50.830Z,0
2023-03-20T01:42:50.798Z,0
2023-03-20T01:43:50.798Z,0
2023-03-20T01:44:50.800Z,0
2023-03-20T01:45:50.864Z,0
2023-03-20T01:46:50.819Z,0
2023-03-20T01:47:50.801Z,0
2023-03-20T01:48:50.816Z,0
2023-03-20T01:49:50.799Z,0
2023-03-20T01:50:50.794Z,0
2023-03-20T01:51:50.870Z,0
2023-03-20T01:52:50.799Z,0
2023-03-20T01:53:50.805Z,0
2023-03-20T01:54:50.818Z,0
2023-03-20T01:55:50.802Z,0
2023-03-20T01:56:50.827Z,0
2023-03-20T01:57:50.828Z,0
2023-03-20T01:58:50.800Z,0
2023-03-20T01:59:50.815Z,0
2023-03-20T02:00:50.892Z,0
2023-03-20T02:01:50.808Z,0
2023-03-20T02:02:50.810Z,0
2023-03-20T02:03:50.800Z,0
2023-03-20T02:04:50.868Z,0
2023-03-20T02:05:50.813Z,0
2023-03-20T02:06:50.823Z,0
2023-03-20T02:07:50.800Z,0
2023-03-20T02:08:50.801Z,0
2023-03-20T02:09:50.808Z,0
2023-03-20T02:10:50.795Z,0
2023-03-20T02:11:50.813Z,0
2023-03-20T02:12:50.791Z,0
2023-03-20T02:13:50.793Z,0
2023-03-20T02:14:50.803Z,0
2023-03-20T02:15:50.801Z,0
2023-03-20T02:16:50.872Z,0
2023-03-20T02:17:50.792Z,0
2023-03-20T02:18:50.794Z,0
2023-03-20T02:19:50.810Z,0
2023-03-20T02:20:50.800Z,0
2023-03-20T02:21:50.819Z,0
2023-03-20T02:22:50.826Z,0
2023-03-20T02:23:50.800Z,0
2023-03-20T02:24:50.807Z,0
2023-03-20T02:25:50.798Z,0
2023-03-20T02:26:50.830Z,0
2023-03-20T02:27:50.794Z,0
2023-03-20T02:28:50.787Z,0
2023-03-20T02:29:50.819Z,0
2023-03-20T02:30:50.855Z,0
2023-03-20T02:31:50.816Z,0
2023-03-20T02:32:50.860Z,0
2023-03-20T02:33:50.802Z,0
2023-03-20T02:34:50.791Z,0
2023-03-20T02:38:50.797Z,0
2023-03-20T02:39:50.788Z,0
2023-03-20T02:40:50.794Z,0
2023-03-20T02:41:50.850Z,0
2023-03-20T02:42:50.813Z,0
2023-03-20T02:43:50.794Z,0
2023-03-20T02:44:50.805Z,0
2023-03-20T02:45:50.866Z,0
2023-03-20T02:46:50.798Z,0
2023-03-20T02:47:50.831Z,0
2023-03-20T02:48:50.824Z,0
2023-03-20T02:49:50.814Z,0
2023-03-20T02:50:50.822Z,0
2023-03-20T02:51:50.798Z,0
2023-03-20T02:52:50.824Z,0
2023-03-20T02:53:50.796Z,0
2023-03-20T02:54:50.804Z,0
2023-03-20T02:55:50.791Z,0
2023-03-20T02:56:50.812Z,0
2023-03-20T02:57:50.810Z,0
2023-03-20T02:58:50.804Z,0
2023-03-20T02:59:50.805Z,0
2023-03-20T03:00:50.820Z,0
2023-03-20T03:01:50.852Z,0
2023-03-20T03:02:50.865Z,0
2023-03-20T03:03:50.789Z,0
2023-03-20T03:04:50.801Z,0
2023-03-20T03:05:50.800Z,0
2023-03-20T03:06:50.806Z,0
2023-03-20T03:07:50.820Z,0
2023-03-20T03:08:50.812Z,0
2023-03-20T03:09:50.812Z,0
2023-03-20T03:10:50.790Z,0
2023-03-20T03:11:50.817Z,0
2023-03-20T03:12:50.841Z,0
2023-03-20T03:13:50.809Z,0
2023-03-20T03:14:50.807Z,0
2023-03-20T03:15:50.832Z,0
2023-03-20T03:16:50.802Z,0
2023-03-20T03:17:50.836Z,0
2023-03-20T03:18:50.807Z,0
2023-03-20T03:19:50.797Z,0
2023-03-20T03:20:50.803Z,0
2023-03-20T03:21:50.809Z,0
2023-03-20T03:22:50.854Z,0
2023-03-20T03:23:50.804Z,0
2023-03-20T03:24:50.797Z,0
2023-03-20T03:25:50.799Z,0
2023-03-20T03:26:50.816Z,0
2023-03-20T03:27:50.811Z,0
2023-03-20T03:28:50.801Z,0
2023-03-20T03:29:50.794Z,0
2023-03-20T03:30:50.817Z,0
2023-03-20T03:31:50.806Z,0
2023-03-20T03:32:50.895Z,0
2023-03-20T03:33:50.806Z,0
2023-03-20T03:34:50.802Z,0
2023-03-20T03:35:50.839Z,0
2023-03-20T03:36:50.793Z,0
2023-03-20T03:37:50.812Z,0
2023-03-20T03:38:50.793Z,0
2023-03-20T03:39:50.806Z,0
2023-03-20T03:40:50.796Z,0
2023-03-20T03:41:50.827Z,0
2023-03-20T03:42:50.818Z,0
2023-03-20T03:43:50.802Z,0
2023-03-20T03:44:50.808Z,0
2023-03-20T03:45:50.806Z,0
2023-03-20T03:46:50.879Z,0
2023-03-20T03:47:50.821Z,0
2023-03-20T03:48:50.794Z,0
2023-03-20T03:49:50.815Z,0
2023-03-20T03:50:50.799Z,0
2023-03-20T03:51:50.815Z,0
2023-03-20T03:52:50.836Z,0
2023-03-20T03:53:50.807Z,0
2023-03-20T03:54:50.796Z,0
2023-03-20T03:55:50.828Z,0
2023-03-20T03:56:50.827Z,0
2023-03-20T03:57:50.822Z,0
2023-03-20T03:58:50.797Z,0
2023-03-20T03:59:50.804Z,0
2023-03-20T04:00:50.799Z,0
2023-03-20T04:01:50.878Z,0
2023-03-20T04:02:50.820Z,0
2023-03-20T04:03:50.807Z,0
2023-03-20T04:04:50.886Z,0
2023-03-20T04:05:50.810Z,0
2023-03-20T04:06:50.814Z,0
2023-03-20T04:07:50.827Z,0
2023-03-20T04:08:50.803Z,0
2023-03-20T04:09:50.809Z,0
2023-03-20T04:10:50.804Z,0
2023-03-20T04:11:50.809Z,0
2023-03-20T04:12:50.820Z,0
2023-03-20T04:13:50.841Z,0
2023-03-20T04:14:50.813Z,0
2023-03-20T04:15:50.847Z,0
2023-03-20T04:16:50.805Z,0
2023-03-20T04:17:50.853Z,0
2023-03-20T04:18:50.842Z,0
2023-03-20T04:19:50.803Z,0
2023-03-20T04:20:50.810Z,0
2023-03-20T04:21:50.804Z,0
2023-03-20T04:22:50.826Z,0
2023-03-20T04:23:50.807Z,0
2023-03-20T04:24:50.809Z,0
2023-03-20T04:25:50.800Z,0
2023-03-20T04:26:50.832Z,0
2023-03-20T04:27:50.839Z,0
2023-03-20T04:28:50.806Z,0
2023-03-20T04:29:50.800Z,0
2023-03-20T04:30:50.820Z,0
2023-03-20T04:31:50.850Z,0
2023-03-20T04:32:50.866Z,0
2023-03-20T04:33:50.819Z,0
2023-03-20T04:34:50.821Z,0
2023-03-20T04:35:50.864Z,0
2023-03-20T04:36:50.806Z,0
2023-03-20T04:37:50.843Z,0
2023-03-20T04:38:50.805Z,0
2023-03-20T04:39:50.803Z,0
2023-03-20T04:40:50.808Z,0
2023-03-20T04:41:50.816Z,0
2023-03-20T04:42:50.828Z,0
2023-03-20T04:43:50.810Z,0
2023-03-20T04:44:50.801Z,0
2023-03-20T04:45:50.854Z,1
2023-03-20T04:46:50.815Z,1
2023-03-20T04:47:50.832Z,3
2023-03-20T04:48:50.806Z,3
2023-03-20T04:49:50.809Z,5
2023-03-20T04:50:50.868Z,7
2023-03-20T04:51:50.800Z,9
2023-03-20T04:52:50.829Z,11
2023-03-20T04:53:50.822Z,14
2023-03-20T04:54:50.809Z,16
2023-03-20T04:55:50.817Z,20
2023-03-20T04:56:50.861Z,22
2023-03-20T04:57:50.817Z,25
2023-03-20T04:58:50.842Z,29
2023-03-20T04:59:50.796Z,33
2023-03-20T05:00:50.904Z,36
2023-03-20T05:01:50.809Z,40
2023-03-20T05:02:50.815Z,44
2023-03-20T05:03:50.851Z,49
2023-03-20T05:04:50.806Z,55
2023-03-20T05:05:50.826Z,58
2023-03-20T05:06:50.822Z,64
2023-03-20T05:07:50.824Z,71
2023-03-20T05:08:50.794Z,71
2023-03-20T05:09:50.805Z,86
2023-03-20T05:10:50.819Z,94
2023-03-20T05:11:50.821Z,101
2023-03-20T05:12:50.825Z,110
2023-03-20T05:13:50.799Z,119
2023-03-20T05:14:50.824Z,127
2023-03-20T05:15:50.806Z,134
2023-03-20T05:16:50.901Z,143
2023-03-20T05:17:51.865Z,152
2023-03-20T05:18:50.812Z,160
2023-03-20T05:19:50.811Z,171
2023-03-20T05:20:50.797Z,182
2023-03-20T05:21:50.810Z,191
2023-03-20T05:22:50.816Z,204
2023-03-20T05:23:50.804Z,215
2023-03-20T05:24:50.800Z,230
2023-03-20T05:25:50.815Z,243
2023-03-20T05:26:50.828Z,258
2023-03-20T05:27:50.837Z,278
2023-03-20T05:28:50.801Z,298
2023-03-20T05:29:50.801Z,317
2023-03-20T05:30:50.832Z,331
2023-03-20T05:31:50.800Z,350
2023-03-20T05:32:50.882Z,368
2023-03-20T05:33:50.800Z,385
2023-03-20T05:34:50.802Z,399
2023-03-20T05:35:50.836Z,414
2023-03-20T05:36:50.804Z,427
2023-03-20T05:37:50.829Z,440
2023-03-20T05:38:50.809Z,449
2023-03-20T05:39:50.812Z,462
2023-03-20T05:40:50.810Z,475
2023-03-20T05:41:50.843Z,488
2023-03-20T05:42:50.822Z,505
2023-03-20T05:43:50.809Z,519
2023-03-20T05:44:50.805Z,532
2023-03-20T05:45:50.880Z,543
2023-03-20T05:46:50.803Z,551
2023-03-20T05:47:50.825Z,558
2023-03-20T05:48:50.801Z,571
2023-03-20T05:49:50.811Z,578
2023-03-20T05:50:50.798Z,593
2023-03-20T05:51:50.813Z,602
2023-03-20T05:52:50.822Z,617
2023-03-20T05:53:50.805Z,634
2023-03-20T05:54:50.820Z,658
2023-03-20T05:55:50.815Z,672
2023-03-20T05:56:50.853Z,685
2023-03-20T05:57:50.818Z,700
2023-03-20T05:58:50.799Z,713
2023-03-20T05:59:50.803Z,726
2023-03-20T06:00:50.809Z,729
2023-03-20T06:01:50.812Z,729
2023-03-20T06:02:50.867Z,729
2023-03-20T06:03:50.828Z,731
2023-03-20T06:04:50.798Z,729
2023-03-20T06:05:50.838Z,731
2023-03-20T06:06:50.830Z,728
2023-03-20T06:07:50.809Z,731
2023-03-20T06:08:50.809Z,731
2023-03-20T06:09:50.805Z,750
2023-03-20T06:10:50.815Z,768
2023-03-20T06:11:50.816Z,785
2023-03-20T06:12:50.825Z,809
2023-03-20T06:13:50.806Z,831
2023-03-20T06:14:50.800Z,849
2023-03-20T06:15:50.805Z,871
2023-03-20T06:16:50.815Z,886
2023-03-20T06:17:50.832Z,903
2023-03-20T06:18:50.812Z,921
2023-03-20T06:19:50.810Z,949
2023-03-20T06:20:50.810Z,975
2023-03-20T06:21:50.800Z,1013
2023-03-20T06:22:50.831Z,1045
2023-03-20T06:23:50.796Z,1078
2023-03-20T06:24:50.819Z,1113
2023-03-20T06:25:50.813Z,1148
2023-03-20T06:26:50.822Z,1181
2023-03-20T06:27:50.813Z,1222
2023-03-20T06:28:50.808Z,1269
2023-03-20T06:29:50.809Z,1314
2023-03-20T06:30:50.842Z,1360
2023-03-20T06:31:50.800Z,1410
2023-03-20T06:32:50.884Z,1457
2023-03-20T06:33:50.814Z,1489
2023-03-20T06:34:50.804Z,1518
2023-03-20T06:35:50.825Z,1559
2023-03-20T06:36:50.812Z,1603
2023-03-20T06:37:50.830Z,1653
2023-03-20T06:38:50.793Z,1727
2023-03-20T06:39:50.797Z,1795
2023-03-20T06:40:50.810Z,1850
2023-03-20T06:41:50.836Z,1896
2023-03-20T06:42:50.832Z,1937
2023-03-20T06:43:50.799Z,1985
2023-03-20T06:44:50.808Z,2029
2023-03-20T06:45:50.807Z,2079
2023-03-20T06:46:50.858Z,2125
2023-03-20T06:47:50.834Z,2178
2023-03-20T06:48:50.798Z,2219
2023-03-20T06:49:50.802Z,2252
2023-03-20T06:50:50.805Z,2296
2023-03-20T06:51:50.809Z,2340
2023-03-20T06:52:50.822Z,2407
2023-03-20T06:53:50.804Z,2475
2023-03-20T06:54:50.789Z,2538
2023-03-20T06:55:50.830Z,2595
2023-03-20T06:56:50.824Z,2656
2023-03-20T06:57:50.833Z,2703
2023-03-20T06:58:50.796Z,2786
2023-03-20T06:59:50.812Z,2864
2023-03-20T07:00:50.794Z,2947
2023-03-20T07:01:50.894Z,3024
2023-03-20T07:02:50.835Z,3098
2023-03-20T07:03:50.804Z,3185
2023-03-20T07:04:50.879Z,3249
2023-03-20T07:05:50.805Z,3297
2023-03-20T07:06:50.788Z,3334
2023-03-20T07:07:50.820Z,3382
2023-03-20T07:08:50.812Z,3382
2023-03-20T07:09:50.792Z,3470
2023-03-20T07:10:50.808Z,3516
2023-03-20T07:11:50.808Z,3581
2023-03-20T07:12:50.833Z,3647
2023-03-20T07:13:50.805Z,3719
2023-03-20T07:14:50.797Z,3774
2023-03-20T07:16:03.698Z,3815
2023-03-20T07:16:50.868Z,3878
2023-03-20T07:17:50.824Z,3914
2023-03-20T07:18:50.807Z,3966
2023-03-20T07:19:50.812Z,4010
2023-03-20T07:20:50.801Z,4008
2023-03-20T07:21:50.804Z,4003
2023-03-20T07:22:50.821Z,3992
2023-03-20T07:23:50.803Z,4001
2023-03-20T07:24:50.800Z,4034
2023-03-20T07:25:50.804Z,4069
2023-03-20T07:26:50.838Z,4125
2023-03-20T07:27:50.903Z,4193
2023-03-20T07:28:50.813Z,4239
2023-03-20T07:29:50.815Z,4292
2023-03-20T07:30:50.819Z,4324
2023-03-20T07:31:50.819Z,4346
2023-03-20T07:32:50.872Z,4381
2023-03-20T07:33:50.823Z,4431
2023-03-20T07:34:50.801Z,4466
2023-03-20T07:35:50.846Z,4488
2023-03-20T07:36:50.812Z,4563
2023-03-20T07:37:50.820Z,4626
2023-03-20T07:38:50.843Z,4698
2023-03-20T07:39:50.800Z,4788
2023-03-20T07:40:50.809Z,4884
2023-03-20T07:41:50.808Z,5000
2023-03-20T07:42:50.807Z,5127
2023-03-20T07:43:50.804Z,5253
2023-03-20T07:44:50.791Z,5358
2023-03-20T07:45:50.817Z,5474
2023-03-20T07:46:50.816Z,5612
2023-03-20T07:47:50.993Z,5780
2023-03-20T07:48:50.798Z,6012
2023-03-20T07:49:50.800Z,6342
2023-03-20T07:50:50.810Z,6742
2023-03-20T07:51:50.807Z,6915
2023-03-20T07:52:50.819Z,7162
2023-03-20T07:53:50.799Z,7300
2023-03-20T07:54:50.798Z,7435
2023-03-20T07:55:50.802Z,7577
2023-03-20T07:56:50.990Z,7811
2023-03-20T07:57:50.814Z,7555
2023-03-20T07:58:50.797Z,7551
2023-03-20T07:59:50.806Z,7367
2023-03-20T08:00:50.794Z,7028
2023-03-20T08:01:50.801Z,6722
2023-03-20T08:02:50.990Z,6676
2023-03-20T08:03:51.036Z,6569
2023-03-20T08:04:50.806Z,6412
2023-03-20T08:05:50.801Z,6368
2023-03-20T08:06:51.212Z,6347
2023-03-20T08:07:50.827Z,6360
2023-03-20T08:08:50.791Z,6360
2023-03-20T08:09:50.803Z,6609
2023-03-20T08:10:50.802Z,6716
2023-03-20T08:11:50.813Z,6703
2023-03-20T08:12:50.828Z,6677
2023-03-20T08:13:50.797Z,6700
2023-03-20T08:14:50.804Z,6856
2023-03-20T08:15:50.790Z,7029
2023-03-20T08:17:06.094Z,7212
2023-03-20T08:17:50.822Z,7341
2023-03-20T08:18:50.822Z,7551
2023-03-20T08:19:50.803Z,7697
2023-03-20T08:20:50.816Z,7817
2023-03-20T08:21:50.820Z,8082
2023-03-20T08:22:50.813Z,8069
2023-03-20T08:23:50.794Z,8086
2023-03-20T08:24:50.808Z,7936
2023-03-20T08:25:50.816Z,8080
2023-03-20T08:26:50.813Z,8384
2023-03-20T08:27:50.817Z,10714
2023-03-20T08:28:51.392Z,9746
2023-03-20T08:29:50.798Z,9389
2023-03-20T08:30:50.841Z,9498
2023-03-20T08:31:50.805Z,10056
2023-03-20T08:32:50.882Z,10845
2023-03-20T08:33:50.826Z,19408
2023-03-20T08:34:50.808Z,14537
2023-03-20T08:35:51.242Z,13086
2023-03-20T08:36:50.800Z,11654
2023-03-20T08:37:50.825Z,12327
2023-03-20T08:38:50.800Z,13079
2023-03-20T08:39:50.797Z,15816
2023-03-20T08:40:50.811Z,17455
2023-03-20T08:41:50.822Z,18964
2023-03-20T08:42:50.838Z,18321
2023-03-20T08:43:50.803Z,9896
2023-03-20T08:44:50.814Z,9897
2023-03-20T08:45:50.842Z,10574
2023-03-20T08:46:50.822Z,9660
2023-03-20T08:47:50.818Z,8484
2023-03-20T08:48:50.828Z,7995
2023-03-20T08:49:50.812Z,7907
2023-03-20T08:50:50.816Z,8699
2023-03-20T08:51:50.799Z,8948
2023-03-20T08:52:50.833Z,9321
2023-03-20T08:53:50.807Z,19388
2023-03-20T08:54:50.797Z,11070
2023-03-20T08:55:50.814Z,13304
2023-03-20T08:56:50.825Z,19285
2023-03-20T08:57:50.839Z,12395
2023-03-20T08:58:50.804Z,18448
2023-03-20T08:59:50.803Z,18961
2023-03-20T09:00:50.798Z,11811
2023-03-20T09:01:50.894Z,8851
2023-03-20T09:02:50.969Z,8364
2023-03-20T09:03:50.807Z,7689
2023-03-20T09:04:50.796Z,7378
2023-03-20T09:05:50.810Z,7463
2023-03-20T09:06:50.801Z,7429
2023-03-20T09:07:50.813Z,7678
2023-03-20T09:08:50.808Z,7678
2023-03-20T09:09:50.807Z,6775
2023-03-20T09:10:53.202Z,6637
2023-03-20T09:11:50.821Z,6952
2023-03-20T09:12:50.806Z,7013
2023-03-20T09:13:50.809Z,6213
2023-03-20T09:14:50.797Z,5457
2023-03-20T09:15:50.818Z,5065
2023-03-20T09:16:50.785Z,5496
2023-03-20T09:17:50.814Z,6325
2023-03-20T09:18:50.792Z,7240
2023-03-20T09:19:50.803Z,7039
2023-03-20T09:20:50.796Z,6672
2023-03-20T09:21:50.795Z,6441
2023-03-20T09:22:50.824Z,6268
2023-03-20T09:23:50.802Z,6211
2023-03-20T09:24:50.800Z,6847
2023-03-20T09:25:50.807Z,7206
2023-03-20T09:26:50.810Z,6185
2023-03-20T09:27:50.812Z,5634
2023-03-20T09:28:50.807Z,5527
2023-03-20T09:29:50.803Z,5424
2023-03-20T09:30:50.877Z,5026
2023-03-20T09:31:50.795Z,4423
2023-03-20T09:32:50.819Z,3962
2023-03-20T09:33:50.811Z,3719
2023-03-20T09:34:50.793Z,3586
2023-03-20T09:35:50.819Z,3500
2023-03-20T09:36:50.800Z,3363
2023-03-20T09:37:50.813Z,3162
2023-03-20T09:38:50.801Z,3081
2023-03-20T09:39:50.799Z,3135
2023-03-20T09:40:50.794Z,3258
2023-03-20T09:41:57.077Z,3424
2023-03-20T09:42:50.807Z,3647
2023-03-20T09:43:50.806Z,3773
2023-03-20T09:44:50.798Z,3765
2023-03-20T09:45:50.796Z,3769
2023-03-20T09:46:50.853Z,3833
2023-03-20T09:47:50.986Z,3896
2023-03-20T09:48:53.132Z,3898
2023-03-20T09:49:50.798Z,3736
2023-03-20T09:50:50.803Z,3456
2023-03-20T09:51:50.791Z,3343
2023-03-20T09:52:50.834Z,3492
2023-03-20T09:53:50.799Z,3680
2023-03-20T09:54:54.048Z,3717
2023-03-20T09:55:50.824Z,3564
2023-03-20T09:56:50.820Z,3588
2023-03-20T09:57:50.814Z,3710
2023-03-20T09:58:50.789Z,3739
2023-03-20T09:59:50.802Z,3878
2023-03-20T10:00:50.794Z,4467
2023-03-20T10:01:50.877Z,5376
2023-03-20T10:02:50.833Z,6136
2023-03-20T10:03:50.792Z,6935
2023-03-20T10:04:50.872Z,7490
2023-03-20T10:05:50.802Z,8071
2023-03-20T10:06:50.801Z,9719
2023-03-20T10:07:50.820Z,19040
2023-03-20T10:08:50.799Z,19040
2023-03-20T10:09:50.791Z,20420
2023-03-20T10:10:50.808Z,18669
2023-03-20T10:11:50.826Z,21126
2023-03-20T10:12:50.818Z,21106
2023-03-20T10:13:50.792Z,20861
2023-03-20T10:14:50.803Z,20865
2023-03-20T10:15:50.824Z,20444
2023-03-20T10:16:50.792Z,20724
2023-03-20T10:17:50.824Z,21637
2023-03-20T10:18:50.800Z,14537
2023-03-20T10:19:50.796Z,20706
2023-03-20T10:20:50.992Z,20734
2023-03-20T10:21:50.797Z,21351
2023-03-20T10:22:50.812Z,21222
2023-03-20T10:23:50.803Z,17508
2023-03-20T10:24:50.794Z,17943
2023-03-20T10:25:50.809Z,12974
2023-03-20T10:26:50.826Z,14789
2023-03-20T10:27:50.805Z,15213
2023-03-20T10:28:50.805Z,12906
2023-03-20T10:29:50.794Z,12856
2023-03-20T10:30:50.794Z,10882
2023-03-20T10:31:50.931Z,16128
2023-03-20T10:32:50.860Z,20282
2023-03-20T10:33:50.795Z,11464
2023-03-20T10:34:50.785Z,21344
2023-03-20T10:35:50.833Z,21714
2023-03-20T10:36:50.807Z,18262
2023-03-20T10:37:50.811Z,10312
2023-03-20T10:38:50.794Z,10069
2023-03-20T10:39:50.789Z,16657
2023-03-20T10:40:50.797Z,14701
2023-03-20T10:41:50.820Z,10731
2023-03-20T10:42:50.839Z,19075
2023-03-20T10:43:50.811Z,14428
2023-03-20T10:44:50.799Z,9770
2023-03-20T10:45:50.804Z,13254
2023-03-20T10:46:50.921Z,20002
2023-03-20T10:47:50.836Z,14701
2023-03-20T10:48:50.796Z,15457
2023-03-20T10:49:51.831Z,13468
2023-03-20T10:50:50.806Z,21434
2023-03-20T10:51:50.794Z,18669
2023-03-20T10:52:50.815Z,16539
2023-03-20T10:53:50.804Z,11608
2023-03-20T10:54:50.801Z,10609
2023-03-20T10:55:50.797Z,9973
2023-03-20T10:56:51.024Z,9199
2023-03-20T10:57:50.810Z,10126
2023-03-20T10:58:50.794Z,11258
2023-03-20T10:59:50.795Z,11143
2023-03-20T11:00:50.887Z,10662
2023-03-20T11:01:50.797Z,9597
2023-03-20T11:02:50.830Z,9444
2023-03-20T11:03:50.910Z,10380
2023-03-20T11:04:50.810Z,11523
2023-03-20T11:06:08.317Z,11171
2023-03-20T11:06:50.797Z,7964
2023-03-20T11:07:50.815Z,6001
2023-03-20T11:08:50.823Z,6001
2023-03-20T11:09:50.800Z,3577
2023-03-20T11:10:50.803Z,3203
2023-03-20T11:11:50.838Z,2925
2023-03-20T11:12:50.813Z,2703
2023-03-20T11:13:50.803Z,2499
2023-03-20T11:14:50.812Z,2329
2023-03-20T11:15:50.807Z,2224
2023-03-20T11:16:50.890Z,2171
2023-03-20T11:17:50.834Z,2138
2023-03-20T11:18:50.796Z,2060
2023-03-20T11:19:50.808Z,2012
2023-03-20T11:20:50.807Z,2009
2023-03-20T11:21:50.810Z,2062
2023-03-20T11:22:50.818Z,2186
2023-03-20T11:23:50.803Z,2366
2023-03-20T11:24:50.800Z,2589
2023-03-20T11:25:50.809Z,2851
2023-03-20T11:26:50.833Z,3146
2023-03-20T11:27:50.825Z,3406
2023-03-20T11:28:50.803Z,3660
2023-03-20T11:29:50.813Z,3891
2023-03-20T11:31:03.997Z,4128
2023-03-20T11:31:50.910Z,4458
2023-03-20T11:32:50.883Z,4622
2023-03-20T11:33:50.805Z,4890
2023-03-20T11:34:50.799Z,5166
2023-03-20T11:35:50.831Z,5406
2023-03-20T11:37:02.542Z,5654
2023-03-20T11:37:50.812Z,5701
2023-03-20T11:38:50.797Z,5706
2023-03-20T11:39:50.798Z,5736
2023-03-20T11:40:50.813Z,5741
2023-03-20T11:41:50.827Z,5839
2023-03-20T11:42:50.815Z,5890
2023-03-20T11:43:50.804Z,5936
2023-03-20T11:44:50.800Z,5900
2023-03-20T11:45:50.885Z,5889
2023-03-20T11:46:50.793Z,5879
2023-03-20T11:47:50.829Z,5877
2023-03-20T11:48:50.796Z,5879
2023-03-20T11:49:50.790Z,5971
2023-03-20T11:50:50.793Z,5992
2023-03-20T11:51:50.797Z,5887
2023-03-20T11:52:50.812Z,5876
2023-03-20T11:53:50.803Z,5916
2023-03-20T11:54:50.815Z,6006
2023-03-20T11:55:50.810Z,6143
2023-03-20T11:56:50.822Z,6325
2023-03-20T11:57:50.829Z,6729
2023-03-20T11:58:50.804Z,6668
2023-03-20T11:59:50.796Z,6897
2023-03-20T12:00:50.804Z,7422
2023-03-20T12:01:50.798Z,7503
2023-03-20T12:02:50.924Z,7286
2023-03-20T12:03:50.830Z,7251
2023-03-20T12:04:50.800Z,7258
2023-03-20T12:05:50.806Z,7286
2023-03-20T12:06:50.802Z,7396
2023-03-20T12:07:50.822Z,7433
2023-03-20T12:08:50.811Z,7433
2023-03-20T12:09:50.798Z,7147
2023-03-20T12:10:50.801Z,6875
2023-03-20T12:11:50.826Z,7072
2023-03-20T12:12:50.824Z,7444
2023-03-20T12:13:50.814Z,7468
2023-03-20T12:14:50.806Z,7295
2023-03-20T12:15:50.894Z,7031
2023-03-20T12:16:50.799Z,7039
2023-03-20T12:17:50.812Z,7164
2023-03-20T12:18:50.801Z,7339
2023-03-20T12:19:50.798Z,7474
2023-03-20T12:20:50.805Z,7477
2023-03-20T12:21:50.798Z,8782
2023-03-20T12:22:50.831Z,7754
2023-03-20T12:23:50.799Z,7756
2023-03-20T12:24:50.796Z,7958
2023-03-20T12:25:50.801Z,8222
2023-03-20T12:26:50.840Z,8583
2023-03-20T12:27:50.806Z,8707
2023-03-20T12:28:50.805Z,8924
2023-03-20T12:29:50.792Z,9238
2023-03-20T12:30:50.841Z,9560
2023-03-20T12:31:50.800Z,10519
2023-03-20T12:32:50.853Z,10814
2023-03-20T12:33:50.805Z,10998
2023-03-20T12:34:50.798Z,13000
2023-03-20T12:35:50.869Z,16041
2023-03-20T12:36:50.806Z,11090
2023-03-20T12:37:50.808Z,10856
2023-03-20T12:38:50.810Z,9157
2023-03-20T12:39:50.806Z,8524
2023-03-20T12:40:50.797Z,8167
2023-03-20T12:41:50.825Z,7501
2023-03-20T12:42:50.824Z,6838
2023-03-20T12:43:50.803Z,6427
2023-03-20T12:44:50.795Z,6058
2023-03-20T12:45:50.801Z,5610
2023-03-20T12:46:50.798Z,5437
2023-03-20T12:47:50.837Z,5208
2023-03-20T12:48:50.808Z,4917
2023-03-20T12:49:50.803Z,5020
2023-03-20T12:50:50.805Z,5406
2023-03-20T12:51:50.801Z,5551
2023-03-20T12:52:50.817Z,5413
2023-03-20T12:53:50.804Z,5181
2023-03-20T12:54:50.812Z,5078
2023-03-20T12:55:50.807Z,4917
2023-03-20T12:56:50.821Z,4687
2023-03-20T12:57:50.841Z,4595
2023-03-20T12:58:50.792Z,4617
2023-03-20T12:59:50.800Z,4834
2023-03-20T13:00:50.794Z,5240
2023-03-20T13:01:50.890Z,5739
2023-03-20T13:02:50.864Z,9905
2023-03-20T13:03:50.804Z,10371
2023-03-20T13:04:50.806Z,7439
2023-03-20T13:05:50.799Z,7173
2023-03-20T13:06:50.808Z,6864
2023-03-20T13:07:50.823Z,6867
2023-03-20T13:08:50.811Z,6867
2023-03-20T13:09:50.809Z,6869
2023-03-20T13:10:50.811Z,6899
2023-03-20T13:11:50.820Z,6934
2023-03-20T13:12:50.833Z,6642
2023-03-20T13:13:50.802Z,6587
2023-03-20T13:14:50.809Z,6207
2023-03-20T13:15:50.829Z,5920
2023-03-20T13:16:50.802Z,5830
2023-03-20T13:17:50.827Z,5481
2023-03-20T13:18:50.811Z,5172
2023-03-20T13:19:50.816Z,5017
2023-03-20T13:20:50.804Z,4884
2023-03-20T13:21:50.805Z,4840
2023-03-20T13:22:50.866Z,4689
2023-03-20T13:23:50.799Z,4563
2023-03-20T13:24:50.816Z,4506
2023-03-20T13:25:50.812Z,4364
2023-03-20T13:26:50.834Z,4115
2023-03-20T13:27:50.841Z,3800
2023-03-20T13:28:50.811Z,3631
2023-03-20T13:29:50.838Z,3614
2023-03-20T13:30:50.811Z,3695
2023-03-20T13:31:50.834Z,3833
2023-03-20T13:32:50.903Z,4073
2023-03-20T13:33:50.800Z,4222
2023-03-20T13:34:53.674Z,4274
2023-03-20T13:35:50.823Z,4255
2023-03-20T13:36:50.797Z,4114
2023-03-20T13:37:50.830Z,3837
2023-03-20T13:38:50.804Z,3502
2023-03-20T13:39:50.802Z,3210
2023-03-20T13:40:50.805Z,3041
2023-03-20T13:41:50.851Z,3048
2023-03-20T13:42:50.824Z,3197
2023-03-20T13:43:50.796Z,3244
2023-03-20T13:44:50.810Z,3183
2023-03-20T13:45:50.810Z,3072
2023-03-20T13:46:50.875Z,3063
2023-03-20T13:47:50.998Z,3078
2023-03-20T13:48:50.804Z,3111
2023-03-20T13:49:50.832Z,3081
2023-03-20T13:50:50.801Z,2897
2023-03-20T13:51:50.804Z,2654